Time;durP1;ratioP1;P1;durP2;ratioP2;P2;SDS_P1;SDS_P2;PMS_P1;PMS_P2;Temp;Humidity;BMP_temperature;BMP_pressure;BME280_temperature;BME280_humidity;BME280_pressure;Samples;Min_cycle;Max_cycle;Signal;HPM_P1;HPM_P2
2024/03/10 00:01:52;;;;;;;46.97;20.10;;;6.00;99.90;;;;;;4377707;28;658973;-72
2024/03/10 00:04:41;;;;;;;54.43;23.63;;;6.00;99.90;;;;;;4376663;28;659146;-72
2024/03/10 00:07:28;;;;;;;52.27;23.77;;;6.00;99.90;;;;;;4391003;28;658759;-72
2024/03/10 00:10:15;;;;;;;37.50;17.80;;;6.00;99.90;;;;;;4397250;28;660261;-72
2024/03/10 00:13:03;;;;;;;48.73;21.67;;;6.00;99.90;;;;;;4377920;28;658764;-71
2024/03/10 00:15:50;;;;;;;55.50;23.63;;;6.00;99.90;;;;;;4398388;28;658736;-71
2024/03/10 00:18:39;;;;;;;50.90;23.13;;;6.00;99.90;;;;;;4378199;28;658628;-72
2024/03/10 00:21:26;;;;;;;44.97;19.70;;;6.00;99.90;;;;;;4400052;28;658693;-72
2024/03/10 00:24:13;;;;;;;44.23;19.63;;;6.00;99.90;;;;;;4378073;28;658674;-72
2024/03/10 00:27:00;;;;;;;51.83;22.00;;;5.80;99.90;;;;;;4399919;28;659878;-72
2024/03/10 00:29:48;;;;;;;55.87;23.77;;;5.80;1.00;;;;;;4375833;28;658198;-72
2024/03/10 00:32:35;;;;;;;63.07;25.97;;;5.70;1.00;;;;;;4409249;28;658652;-72
2024/03/10 00:35:24;;;;;;;56.67;24.07;;;5.70;1.00;;;;;;4395251;28;657794;-72
2024/03/10 00:38:11;;;;;;;68.20;26.67;;;5.60;1.00;;;;;;4397013;28;657248;-71
2024/03/10 00:40:58;;;;;;;63.90;25.40;;;5.60;1.00;;;;;;4377772;28;657512;-71
2024/03/10 00:43:46;;;;;;;60.17;24.47;;;5.60;1.00;;;;;;4414269;28;658104;-71
2024/03/10 00:46:33;;;;;;;57.53;23.30;;;5.70;1.00;;;;;;4395407;28;657752;-72
2024/03/10 00:49:20;;;;;;;54.10;23.43;;;5.70;1.00;;;;;;4402129;28;659058;-72
2024/03/10 00:52:09;;;;;;;50.30;21.10;;;5.60;1.00;;;;;;4378412;28;657803;-71
2024/03/10 00:54:56;;;;;;;49.43;21.40;;;5.60;1.00;;;;;;4408613;28;657629;-71
2024/03/10 00:57:43;;;;;;;41.50;19.52;;;5.50;1.00;;;;;;4394335;28;658020;-71
2024/03/10 01:00:32;;;;;;;47.70;21.17;;;5.50;1.00;;;;;;4413025;28;658307;-71
2024/03/10 01:03:19;;;;;;;47.97;20.53;;;5.50;1.00;;;;;;4394219;28;658145;-71
2024/03/10 01:06:07;;;;;;;43.95;20.30;;;5.50;1.00;;;;;;4413590;28;658084;-71
2024/03/10 01:08:56;;;;;;;46.87;21.23;;;5.50;1.00;;;;;;4390213;28;658387;-71
2024/03/10 01:11:43;;;;;;;41.97;20.20;;;5.50;1.00;;;;;;4381707;28;658071;-72
2024/03/10 01:14:30;;;;;;;39.33;18.40;;;5.40;1.00;;;;;;4400622;28;658528;-72
2024/03/10 01:17:17;;;;;;;38.72;18.83;;;5.30;99.90;;;;;;4392810;28;658104;-72
2024/03/10 01:20:06;;;;;;;40.93;18.67;;;5.30;99.90;;;;;;4403040;28;659077;-72
2024/03/10 01:22:53;;;;;;;38.03;18.40;;;5.30;99.90;;;;;;4393467;28;658919;-71
2024/03/10 01:25:42;;;;;;;40.30;18.20;;;5.30;10.00;;;;;;4401178;28;659916;-72
2024/03/10 01:28:30;;;;;;;39.57;19.23;;;5.40;1.00;;;;;;4392701;28;659243;-72
2024/03/10 01:31:17;;;;;;;43.03;17.47;;;5.40;1.00;;;;;;4411689;28;658108;-72
2024/03/10 01:34:05;;;;;;;35.47;15.60;;;5.40;6.10;;;;;;4416495;28;658042;-72
2024/03/10 01:36:53;;;;;;;35.97;16.77;;;5.40;34.90;;;;;;4407273;28;658428;-72
2024/03/10 01:39:40;;;;;;;35.47;17.17;;;5.40;1.00;;;;;;4415925;28;659012;-72
2024/03/10 01:42:29;;;;;;;44.90;20.63;;;5.40;1.00;;;;;;4386304;28;658674;-72
2024/03/10 01:45:16;;;;;;;60.00;24.67;;;5.40;1.00;;;;;;4412339;28;658606;-72
2024/03/10 01:48:04;;;;;;;49.97;22.30;;;5.40;1.00;;;;;;4381419;28;658078;-72
2024/03/10 01:50:51;;;;;;;46.27;20.43;;;5.30;1.00;;;;;;4412478;28;657592;-72
2024/03/10 01:53:38;;;;;;;38.03;17.67;;;5.30;1.00;;;;;;4394534;28;658246;-72
2024/03/10 01:56:25;;;;;;;38.07;16.33;;;5.30;1.00;;;;;;4387682;28;658200;-72
2024/03/10 01:59:14;;;;;;;35.23;16.73;;;5.30;1.00;;;;;;4372270;28;658162;-72
2024/03/10 02:02:01;;;;;;;34.50;16.60;;;5.20;1.00;;;;;;4395811;28;657688;-72
2024/03/10 02:04:49;;;;;;;35.37;16.43;;;5.20;10.40;;;;;;4360549;28;657963;-72
2024/03/10 02:07:36;;;;;;;33.23;15.73;;;5.10;1.00;;;;;;4394321;28;659234;-72
2024/03/10 02:10:24;;;;;;;38.33;16.40;;;5.00;66.80;;;;;;4363424;28;658222;-72
2024/03/10 02:13:11;;;;;;;39.87;17.17;;;4.90;99.90;;;;;;4381320;28;659704;-72
2024/03/10 02:16:03;;;;;;;36.00;17.47;;;4.80;99.90;;;;;;4358814;28;658570;-72
2024/03/10 02:18:51;;;;;;;38.30;17.27;;;4.70;99.90;;;;;;4354623;28;659619;-72
2024/03/10 02:21:38;;;;;;;36.40;14.97;;;4.70;99.90;;;;;;4374330;28;658961;-72
2024/03/10 02:24:28;;;;;;;35.43;14.77;;;4.80;99.90;;;;;;4381803;28;659032;-72
2024/03/10 02:27:17;;;;;;;32.80;14.87;;;4.80;41.20;;;;;;4358721;28;659652;-72
2024/03/10 02:30:18;;;;;;;35.97;15.43;;;4.80;23.80;;;;;;4375362;28;659118;-72
2024/03/10 02:48:30;;;;;;;36.53;15.57;;;4.70;44.60;;;;;;4361612;28;658899;-72
2024/03/10 02:51:18;;;;;;;34.70;15.67;;;4.80;1.00;;;;;;4389068;28;658954;-72
2024/03/10 02:54:06;;;;;;;32.67;15.23;;;4.70;81.70;;;;;;4403976;28;658678;-72
2024/03/10 02:56:53;;;;;;;33.63;15.30;;;4.60;99.90;;;;;;4413076;28;658291;-72
2024/03/10 02:59:42;;;;;;;37.53;15.97;;;4.60;99.90;;;;;;4431674;28;659688;-72
2024/03/10 03:02:30;;;;;;;34.57;15.33;;;4.60;99.90;;;;;;4408386;28;660016;-72
2024/03/10 03:05:18;;;;;;;43.53;17.95;;;4.60;99.90;;;;;;4417440;28;658513;-72
2024/03/10 03:08:07;;;;;;;38.90;16.77;;;4.70;99.90;;;;;;4435292;28;658664;-72
2024/03/10 03:10:54;;;;;;;36.40;16.47;;;4.70;99.90;;;;;;4412966;28;659468;-72
2024/03/10 03:13:42;;;;;;;38.50;17.52;;;4.60;99.90;;;;;;4431642;28;659431;-72
2024/03/10 03:16:32;;;;;;;37.33;17.10;;;4.60;99.90;;;;;;4413336;28;658986;-72
2024/03/10 03:19:19;;;;;;;36.10;16.77;;;4.60;99.90;;;;;;4412657;28;659939;-72
2024/03/10 03:22:07;;;;;;;34.10;15.60;;;4.50;99.90;;;;;;4431289;28;659533;-73
2024/03/10 03:24:54;;;;;;;34.47;15.93;;;4.60;99.90;;;;;;4412344;28;659876;-73
2024/03/10 03:27:42;;;;;;;39.50;18.17;;;4.50;99.90;;;;;;4431003;28;658634;-72
2024/03/10 03:30:31;;;;;;;36.83;16.93;;;4.50;99.90;;;;;;4409092;28;659861;-73
2024/03/10 03:33:20;;;;;;;35.38;15.93;;;4.50;99.90;;;;;;4412382;28;658926;-72
2024/03/10 03:36:08;;;;;;;40.03;17.60;;;4.50;99.90;;;;;;4414628;28;658624;-72
2024/03/10 03:38:55;;;;;;;35.37;15.83;;;4.50;99.90;;;;;;4432564;28;659266;-72
2024/03/10 03:41:42;;;;;;;29.80;14.60;;;4.50;99.90;;;;;;4415257;28;658917;-72
2024/03/10 03:44:30;;;;;;;33.60;15.97;;;4.40;99.90;;;;;;4435408;28;659588;-72
2024/03/10 03:47:17;;;;;;;32.70;15.03;;;4.40;99.90;;;;;;4431502;28;658682;-72
2024/03/10 03:50:08;;;;;;;37.13;15.90;;;4.40;1.00;;;;;;4412698;28;659609;-72
2024/03/10 03:52:55;;;;;;;33.93;15.27;;;4.40;1.00;;;;;;4407897;28;658177;-72
2024/03/10 03:55:42;;;;;;;34.13;15.07;;;4.30;99.90;;;;;;4421592;28;658289;-72
2024/03/10 03:58:30;;;;;;;36.63;16.33;;;4.30;99.90;;;;;;4431668;28;660394;-72
2024/03/10 04:01:18;;;;;;;31.57;15.53;;;4.30;99.90;;;;;;4429820;28;659082;-72
2024/03/10 04:04:06;;;;;;;34.57;15.10;;;4.40;99.90;;;;;;4431164;28;658942;-72
2024/03/10 04:06:55;;;;;;;28.50;13.80;;;4.40;99.90;;;;;;4411733;28;658856;-72
2024/03/10 04:09:42;;;;;;;33.97;15.43;;;4.40;99.90;;;;;;4415059;28;658649;-72
2024/03/10 04:12:30;;;;;;;33.17;14.73;;;4.40;99.90;;;;;;4431252;28;660003;-71
2024/03/10 04:15:17;;;;;;;31.63;14.60;;;4.40;99.90;;;;;;4434857;28;658981;-72
2024/03/10 04:18:05;;;;;;;35.33;15.67;;;4.40;99.90;;;;;;4408345;28;660731;-72
2024/03/10 04:20:52;;;;;;;33.83;14.53;;;4.40;99.90;;;;;;4429670;28;659223;-72
2024/03/10 04:23:41;;;;;;;32.07;14.03;;;4.40;99.90;;;;;;4434894;28;659569;-72
2024/03/10 04:26:28;;;;;;;31.93;14.37;;;4.40;99.90;;;;;;4412095;28;658724;-72
2024/03/10 04:29:15;;;;;;;29.17;13.57;;;4.40;99.90;;;;;;4430249;28;658979;-72
2024/03/10 04:32:07;;;;;;;25.60;12.33;;;4.40;99.90;;;;;;4411429;28;659034;-72
2024/03/10 04:34:54;;;;;;;27.20;13.30;;;4.50;99.90;;;;;;4411780;28;658987;-72
2024/03/10 04:37:41;;;;;;;25.90;12.67;;;4.50;99.90;;;;;;4430553;28;658403;-72
2024/03/10 04:40:30;;;;;;;23.73;12.57;;;4.40;99.90;;;;;;4409905;28;658691;-72
2024/03/10 04:43:17;;;;;;;25.13;12.73;;;4.40;99.90;;;;;;4420454;28;658472;-72
2024/03/10 04:46:05;;;;;;;29.83;13.27;;;4.40;99.90;;;;;;4435177;28;658717;-72
2024/03/10 04:48:52;;;;;;;26.90;13.30;;;4.40;99.90;;;;;;4430458;28;658758;-73
2024/03/10 04:51:39;;;;;;;27.47;12.37;;;4.40;99.90;;;;;;4411526;28;659499;-72
2024/03/10 04:54:26;;;;;;;26.23;12.43;;;4.40;99.90;;;;;;4430195;28;659207;-72
2024/03/10 04:57:15;;;;;;;26.17;13.27;;;4.30;99.90;;;;;;4423693;28;658629;-72
2024/03/10 05:00:08;;;;;;;22.40;12.00;;;4.20;99.90;;;;;;4439329;28;658421;-72
2024/03/10 05:02:55;;;;;;;25.43;12.27;;;4.10;1.00;;;;;;4428760;28;660131;-72
2024/03/10 05:05:43;;;;;;;26.43;12.80;;;4.20;99.90;;;;;;4429111;28;657690;-72
2024/03/10 05:08:30;;;;;;;25.10;12.07;;;4.20;99.90;;;;;;4447765;28;659847;-72
2024/03/10 05:11:18;;;;;;;30.43;12.43;;;4.10;99.90;;;;;;4439047;28;658250;-72
2024/03/10 05:14:07;;;;;;;30.80;15.17;;;4.10;1.00;;;;;;4448119;28;660100;-72
2024/03/10 05:16:54;;;;;;;29.30;14.03;;;4.00;1.00;;;;;;4426530;28;659182;-72
2024/03/10 05:19:42;;;;;;;35.77;16.40;;;4.00;1.00;;;;;;4448537;28;658481;-72
2024/03/10 05:22:30;;;;;;;30.30;14.13;;;4.00;1.00;;;;;;4423623;28;658591;-72
2024/03/10 05:25:17;;;;;;;36.33;16.07;;;3.90;1.00;;;;;;4429899;28;657941;-72
2024/03/10 05:28:06;;;;;;;28.53;13.73;;;3.90;1.00;;;;;;4452723;28;658288;-72
2024/03/10 05:30:55;;;;;;;30.70;14.23;;;3.90;1.00;;;;;;4429474;28;657505;-72
2024/03/10 05:33:42;;;;;;;34.87;14.57;;;3.90;1.00;;;;;;4437790;28;658295;-72
2024/03/10 05:36:30;;;;;;;31.03;15.57;;;3.90;1.00;;;;;;4448801;28;658239;-72
2024/03/10 05:39:18;;;;;;;32.73;14.47;;;3.90;1.00;;;;;;4429900;28;658770;-72
2024/03/10 05:42:06;;;;;;;30.77;13.87;;;4.00;1.00;;;;;;4448436;28;657918;-72
2024/03/10 05:44:53;;;;;;;30.23;14.57;;;4.00;1.00;;;;;;4429542;28;657955;-72
2024/03/10 05:47:42;;;;;;;29.25;13.70;;;4.00;1.00;;;;;;4452102;28;659139;-72
2024/03/10 05:50:30;;;;;;;31.37;14.57;;;4.10;1.00;;;;;;4426032;28;658154;-72
2024/03/10 05:53:17;;;;;;;30.40;13.87;;;4.20;1.00;;;;;;4447498;28;657781;-72
2024/03/10 05:56:07;;;;;;;25.10;12.17;;;4.40;1.00;;;;;;4423869;28;658112;-72
2024/03/10 05:58:54;;;;;;;23.93;12.23;;;4.40;1.00;;;;;;4400720;28;658155;-72
2024/03/10 06:01:41;;;;;;;25.73;11.97;;;4.60;99.90;;;;;;4418320;28;658163;-72
2024/03/10 06:04:30;;;;;;;21.60;11.30;;;4.70;99.90;;;;;;4409276;28;659048;-72
2024/03/10 06:07:18;;;;;;;23.97;12.07;;;4.90;65.50;;;;;;4393846;28;659154;-72
2024/03/10 06:10:06;;;;;;;27.43;12.93;;;5.00;99.90;;;;;;4428911;28;659037;-72
2024/03/10 06:12:53;;;;;;;27.30;11.93;;;5.00;54.30;;;;;;4392952;28;659313;-72
2024/03/10 06:15:41;;;;;;;27.53;12.70;;;5.10;32.10;;;;;;4429146;28;659798;-72
2024/03/10 06:18:32;;;;;;;20.00;10.67;;;5.20;1.00;;;;;;4398827;28;658424;-72
2024/03/10 06:27:30;;;;;;;20.20;10.10;;;5.40;1.00;;;;;;4388565;28;657862;-72
2024/03/10 06:30:19;;;;;;;35.37;13.63;;;5.50;1.00;;;;;;4393947;28;657821;-72
2024/03/10 06:33:07;;;;;;;27.38;12.80;;;5.60;1.00;;;;;;4411744;28;657541;-72
2024/03/10 06:35:54;;;;;;;21.70;10.50;;;5.50;1.00;;;;;;4410566;28;657592;-72
2024/03/10 06:38:43;;;;;;;25.60;12.23;;;5.70;1.00;;;;;;4430514;28;657973;-72
2024/03/10 06:41:30;;;;;;;36.67;14.13;;;5.70;1.00;;;;;;4407473;28;657917;-72
2024/03/10 06:44:19;;;;;;;48.70;16.90;;;5.80;1.00;;;;;;4411404;28;657285;-72
2024/03/10 06:47:07;;;;;;;37.20;14.73;;;5.80;1.00;;;;;;4433876;28;657988;-72
2024/03/10 06:49:54;;;;;;;26.30;12.70;;;5.80;1.00;;;;;;4410940;28;658880;-72
2024/03/10 06:52:45;;;;;;;23.20;11.43;;;5.80;1.00;;;;;;4429475;28;657880;-72
2024/03/10 06:55:34;;;;;;;28.67;13.03;;;5.90;1.00;;;;;;4394303;28;657880;-72
2024/03/10 06:58:21;;;;;;;22.07;11.27;;;6.00;1.00;;;;;;4389166;28;657238;-72
2024/03/10 07:01:08;;;;;;;23.13;11.23;;;6.00;99.90;;;;;;4393616;28;658043;-72
2024/03/10 07:03:58;;;;;;;26.93;12.23;;;6.10;1.00;;;;;;4410107;28;658492;-72
2024/03/10 07:06:46;;;;;;;28.97;13.70;;;6.30;99.90;;;;;;4416489;28;658261;-72
2024/03/10 07:09:33;;;;;;;27.97;13.23;;;6.30;99.90;;;;;;4392390;28;658749;-72
2024/03/10 07:12:23;;;;;;;38.03;16.27;;;6.30;99.90;;;;;;4411279;28;659795;-71
2024/03/10 07:15:11;;;;;;;28.73;13.90;;;6.30;99.90;;;;;;4387936;28;658839;-72
2024/03/10 07:17:58;;;;;;;27.13;13.13;;;6.40;99.90;;;;;;4392932;28;658834;-72
2024/03/10 07:20:46;;;;;;;28.07;13.00;;;6.50;99.90;;;;;;4415137;28;658660;-72
2024/03/10 07:23:33;;;;;;;26.87;12.97;;;6.50;99.90;;;;;;4391681;28;658921;-72
2024/03/10 07:26:21;;;;;;;27.27;13.43;;;6.60;99.90;;;;;;4411291;28;659701;-72
2024/03/10 07:29:11;;;;;;;23.43;12.13;;;6.60;99.90;;;;;;4395745;28;658737;-72
2024/03/10 07:31:58;;;;;;;34.27;15.33;;;6.70;99.90;;;;;;4394759;28;658922;-72
2024/03/10 07:34:45;;;;;;;26.63;12.93;;;6.70;99.90;;;;;;4413163;28;658912;-72
2024/03/10 07:37:32;;;;;;;27.47;13.00;;;6.90;99.90;;;;;;4387990;28;658457;-72
2024/03/10 07:40:20;;;;;;;31.90;15.07;;;7.00;96.50;;;;;;4418396;28;658798;-72
2024/03/10 07:43:08;;;;;;;30.70;14.20;;;7.10;26.60;;;;;;4378953;28;658452;-72
2024/03/10 07:45:58;;;;;;;28.13;12.47;;;7.10;39.50;;;;;;4417955;28;659684;-72
2024/03/10 07:48:45;;;;;;;24.20;12.67;;;7.20;1.00;;;;;;4391252;28;660154;-72
2024/03/10 07:51:32;;;;;;;27.87;13.53;;;7.30;1.00;;;;;;4388627;28;657572;-72
2024/03/10 07:54:20;;;;;;;30.07;13.87;;;7.30;1.00;;;;;;4394904;28;658237;-72
2024/03/10 07:57:07;;;;;;;24.73;11.87;;;7.40;55.70;;;;;;4408500;28;658028;-72
2024/03/10 07:59:55;;;;;;;24.33;11.90;;;7.70;1.00;;;;;;4414988;28;659851;-72
2024/03/10 08:02:43;;;;;;;27.97;11.53;;;8.00;1.00;;;;;;4416891;28;657079;-72
2024/03/10 08:05:30;;;;;;;24.53;12.77;;;8.10;1.00;;;;;;4392252;28;657892;-72
2024/03/10 08:08:18;;;;;;;26.50;13.10;;;8.00;1.00;;;;;;4394945;28;658061;-72
2024/03/10 08:11:05;;;;;;;29.70;13.17;;;8.10;1.00;;;;;;4392570;28;658290;-72
2024/03/10 08:13:52;;;;;;;25.20;11.70;;;8.10;1.00;;;;;;4398125;28;658111;-72
2024/03/10 08:16:41;;;;;;;19.37;10.03;;;8.20;1.00;;;;;;4405173;28;658190;-72
2024/03/10 08:19:29;;;;;;;24.67;10.50;;;8.30;1.00;;;;;;4378898;28;657753;-72
2024/03/10 08:22:17;;;;;;;27.27;11.00;;;8.80;1.00;;;;;;4414876;28;657891;-72
2024/03/10 08:25:04;;;;;;;14.93;7.67;;;9.60;99.90;;;;;;4380768;28;658091;-72
2024/03/10 08:27:53;;;;;;;17.90;8.47;;;9.70;84.60;;;;;;4414554;28;657929;-72
2024/03/10 08:30:41;;;;;;;19.77;8.53;;;9.50;11.10;;;;;;4377973;28;658607;-72
2024/03/10 08:33:28;;;;;;;10.83;6.57;;;9.50;99.90;;;;;;4381399;28;657585;-72
2024/03/10 08:36:17;;;;;;;14.00;7.53;;;9.70;1.00;;;;;;4412048;28;657913;-72
2024/03/10 08:39:08;;;;;;;12.87;6.73;;;9.60;1.00;;;;;;4372939;28;657663;-72
2024/03/10 08:41:55;;;;;;;15.00;7.60;;;9.50;48.50;;;;;;4390106;28;657046;-72
2024/03/10 08:44:42;;;;;;;14.90;7.90;;;9.30;91.10;;;;;;4386512;28;657717;-72
2024/03/10 08:47:30;;;;;;;15.40;8.00;;;9.40;99.90;;;;;;4404656;28;657829;-71
2024/03/10 08:50:17;;;;;;;13.43;7.87;;;9.50;99.90;;;;;;4404379;28;657814;-70
2024/03/10 08:53:05;;;;;;;17.40;8.73;;;9.50;99.90;;;;;;4398831;28;658619;-71
2024/03/10 08:55:53;;;;;;;16.67;8.87;;;9.70;99.90;;;;;;4396945;28;658408;-71
2024/03/10 08:58:41;;;;;;;18.57;9.67;;;9.80;99.90;;;;;;4414261;28;659016;-71
2024/03/10 09:01:28;;;;;;;16.57;9.10;;;10.20;97.10;;;;;;4395460;28;657449;-71
2024/03/10 09:04:15;;;;;;;20.20;9.80;;;10.80;1.00;;;;;;4417097;28;658879;-71
2024/03/10 09:07:03;;;;;;;17.90;9.00;;;11.30;1.00;;;;;;4388740;28;657193;-71
2024/03/10 09:09:52;;;;;;;17.87;7.07;;;11.70;1.00;;;;;;4415569;28;659176;-71
2024/03/10 09:12:40;;;;;;;13.07;6.73;;;12.50;1.00;;;;;;4393466;28;657397;-71
2024/03/10 09:15:27;;;;;;;15.73;7.57;;;13.10;1.00;;;;;;4418041;28;657097;-71
2024/03/10 09:18:14;;;;;;;14.63;7.80;;;13.30;1.00;;;;;;4395048;28;657422;-72
2024/03/10 09:21:01;;;;;;;14.20;7.07;;;13.60;1.00;;;;;;4413659;28;657985;-72
2024/03/10 09:23:49;;;;;;;15.60;7.87;;;14.10;1.00;;;;;;4394899;28;657717;-72
2024/03/10 09:26:39;;;;;;;21.63;9.53;;;13.60;1.00;;;;;;4414323;28;657758;-72
2024/03/10 09:29:27;;;;;;;16.63;8.40;;;13.30;1.00;;;;;;4395339;28;657049;-71
2024/03/10 09:32:15;;;;;;;19.67;9.47;;;13.50;1.00;;;;;;4395034;28;657994;-72
2024/03/10 09:35:03;;;;;;;16.92;8.90;;;14.00;1.00;;;;;;4394508;28;657905;-71
2024/03/10 09:37:50;;;;;;;20.03;9.70;;;14.20;1.00;;;;;;4413984;28;659072;-72
2024/03/10 09:40:39;;;;;;;21.30;10.30;;;14.50;1.00;;;;;;4402856;28;658543;-72
2024/03/10 09:43:28;;;;;;;26.27;11.03;;;14.40;1.00;;;;;;4415964;28;658566;-72
2024/03/10 09:46:16;;;;;;;21.10;10.33;;;14.10;1.00;;;;;;4393756;28;658721;-72
2024/03/10 09:49:05;;;;;;;19.17;9.27;;;13.60;1.00;;;;;;4390945;28;659155;-71
2024/03/10 09:51:53;;;;;;;16.10;9.00;;;13.00;1.00;;;;;;4400360;28;657389;-72
2024/03/10 09:54:40;;;;;;;15.67;9.07;;;12.40;1.00;;;;;;4396792;28;658708;-71
2024/03/10 09:57:28;;;;;;;16.57;8.80;;;11.80;1.00;;;;;;4411190;28;657707;-72
2024/03/10 10:00:17;;;;;;;16.43;9.00;;;11.50;1.00;;;;;;4429742;28;659021;-72
2024/03/10 10:03:07;;;;;;;16.60;8.27;;;11.50;1.00;;;;;;4401441;28;658794;-71
2024/03/10 10:05:58;;;;;;;18.97;9.40;;;11.60;1.00;;;;;;4411487;28;657141;-71
2024/03/10 10:08:45;;;;;;;16.77;8.70;;;11.40;1.00;;;;;;4407676;28;658459;-72
2024/03/10 10:11:33;;;;;;;14.03;8.70;;;11.70;1.00;;;;;;4410882;28;657671;-72
2024/03/10 10:14:23;;;;;;;13.97;8.33;;;12.00;1.00;;;;;;4426137;28;658495;-72
2024/03/10 10:17:11;;;;;;;12.73;7.13;;;12.30;1.00;;;;;;4407426;28;658377;-71
2024/03/10 10:20:01;;;;;;;10.47;6.83;;;12.10;1.00;;;;;;4400395;28;658354;-72
2024/03/10 10:22:49;;;;;;;13.10;6.20;;;12.10;1.00;;;;;;4409734;28;657879;-72
2024/03/10 10:25:36;;;;;;;11.73;5.93;;;12.20;1.00;;;;;;4430760;28;658444;-71
2024/03/10 10:28:23;;;;;;;10.93;6.67;;;12.50;1.00;;;;;;4411364;28;657970;-71
2024/03/10 10:31:13;;;;;;;11.13;6.43;;;12.70;1.00;;;;;;4424412;28;658612;-71
2024/03/10 10:34:02;;;;;;;10.93;6.20;;;12.90;1.00;;;;;;4403890;28;658683;-71
2024/03/10 10:36:49;;;;;;;12.23;5.97;;;13.00;1.00;;;;;;4411076;28;658200;-71
2024/03/10 10:39:37;;;;;;;10.13;6.00;;;13.30;1.00;;;;;;4430275;28;657629;-71
2024/03/10 10:42:25;;;;;;;11.80;6.30;;;13.70;1.00;;;;;;4404139;28;658520;-71
2024/03/10 10:45:14;;;;;;;10.33;5.63;;;13.90;1.00;;;;;;4405293;28;658266;-71
2024/03/10 10:48:01;;;;;;;12.80;6.07;;;14.10;1.00;;;;;;4430025;28;658539;-71
2024/03/10 10:50:51;;;;;;;11.37;5.83;;;14.30;1.00;;;;;;4411318;28;658156;-71
2024/03/10 10:53:41;;;;;;;11.57;6.83;;;14.90;1.00;;;;;;4411053;28;657563;-71
2024/03/10 10:56:28;;;;;;;13.17;6.47;;;15.30;1.00;;;;;;4393869;28;657844;-71
2024/03/10 10:59:18;;;;;;;13.33;7.43;;;15.40;1.00;;;;;;4412544;28;659089;-71
2024/03/10 11:02:19;;;;;;;9.20;5.83;;;15.60;1.00;;;;;;4389740;28;659090;-71
2024/03/10 11:05:07;;;;;;;10.67;6.00;;;15.50;99.90;;;;;;4398407;28;656266;-71
2024/03/10 11:07:57;;;;;;;10.87;5.97;;;15.40;99.90;;;;;;4391993;28;659626;-71
2024/03/10 11:10:47;;;;;;;14.27;6.93;;;15.10;99.90;;;;;;4391897;28;658780;-71
2024/03/10 11:13:34;;;;;;;14.20;7.30;;;15.10;1.00;;;;;;4395333;28;658847;-70
2024/03/10 11:16:23;;;;;;;12.33;7.10;;;15.30;99.90;;;;;;4420160;28;657281;-71
2024/03/10 11:19:13;;;;;;;13.57;7.57;;;15.20;99.90;;;;;;4395677;28;659419;-71
2024/03/10 11:22:00;;;;;;;13.23;6.90;;;14.80;1.00;;;;;;4395412;28;659335;-71
2024/03/10 11:25:08;;;;;;;12.77;6.27;;;14.60;99.90;;;;;;4396164;28;658351;-71
2024/03/10 11:27:59;;;;;;;10.73;6.50;;;15.50;99.90;;;;;;4391736;28;659586;-71
2024/03/10 11:30:50;;;;;;;12.33;7.23;;;15.70;99.90;;;;;;4391415;28;658825;-71
2024/03/10 11:33:40;;;;;;;10.53;6.50;;;15.60;99.90;;;;;;4388798;28;658915;-71
2024/03/10 11:36:36;;;;;;;12.25;5.80;;;16.00;99.90;;;;;;4399675;28;659377;-71
2024/03/10 11:39:23;;;;;;;11.60;6.97;;;15.90;99.90;;;;;;4392623;28;659375;-71
2024/03/10 11:42:12;;;;;;;9.03;5.63;;;16.10;99.90;;;;;;4414088;28;659082;-71
2024/03/10 11:44:59;;;;;;;11.87;7.43;;;16.10;99.90;;;;;;4396636;28;658898;-71
2024/03/10 11:47:46;;;;;;;11.93;6.87;;;15.70;99.90;;;;;;4414130;28;659553;-71
2024/03/10 11:50:33;;;;;;;12.53;6.97;;;15.50;99.90;;;;;;4395643;28;658827;-70
2024/03/10 11:53:21;;;;;;;11.90;6.87;;;15.20;99.90;;;;;;4408965;28;659086;-71
2024/03/10 11:56:08;;;;;;;11.90;6.77;;;14.70;99.90;;;;;;4389513;28;658819;-71
2024/03/10 11:58:57;;;;;;;12.67;7.50;;;14.80;99.90;;;;;;4393651;28;658927;-71
2024/03/10 12:01:44;;;;;;;13.40;7.47;;;14.60;99.90;;;;;;4374282;28;659129;-70
2024/03/10 12:04:32;;;;;;;15.93;8.07;;;14.40;1.00;;;;;;4396633;28;659422;-71
2024/03/10 12:07:19;;;;;;;22.10;9.57;;;14.80;1.00;;;;;;4377781;28;657756;-71
2024/03/10 12:10:09;;;;;;;22.10;9.57;;;14.90;1.00;;;;;;4419112;28;657590;-71
2024/03/10 12:12:57;;;;;;;21.13;8.90;;;14.90;1.00;;;;;;4379613;28;657525;-71
2024/03/10 12:15:50;;;;;;;25.27;10.70;;;14.90;1.00;;;;;;4376369;28;658295;-71
2024/03/10 12:18:40;;;;;;;30.40;11.70;;;15.20;1.00;;;;;;4365493;28;659110;-71
2024/03/10 12:21:29;;;;;;;18.93;9.30;;;15.40;1.00;;;;;;4377716;28;658769;-71
2024/03/10 12:24:17;;;;;;;22.47;10.03;;;15.80;1.00;;;;;;4392821;28;657392;-71
2024/03/10 12:27:05;;;;;;;16.50;8.50;;;16.40;99.90;;;;;;4374177;28;658881;-71
2024/03/10 12:29:53;;;;;;;13.43;7.27;;;17.00;1.00;;;;;;4377285;28;658624;-71
2024/03/10 12:32:43;;;;;;;12.87;6.70;;;17.40;1.00;;;;;;4415000;28;658745;-71
2024/03/10 12:35:30;;;;;;;9.20;5.60;;;17.50;1.00;;;;;;4395632;28;658990;-71
2024/03/10 12:38:18;;;;;;;10.03;6.40;;;16.90;1.00;;;;;;4396374;28;657131;-71
2024/03/10 12:41:06;;;;;;;9.83;5.97;;;16.40;99.90;;;;;;4414973;28;658776;-71
2024/03/10 12:43:55;;;;;;;8.50;5.20;;;16.10;99.90;;;;;;4395497;28;657453;-71
2024/03/10 12:46:42;;;;;;;14.50;6.10;;;15.70;99.90;;;;;;4399452;28;658244;-71
2024/03/10 12:49:31;;;;;;;8.73;5.03;;;15.60;99.90;;;;;;4417043;28;658986;-71
2024/03/10 12:52:19;;;;;;;14.90;7.00;;;15.50;99.90;;;;;;4377702;28;657783;-71
2024/03/10 12:55:07;;;;;;;8.87;5.10;;;15.50;99.90;;;;;;4414414;28;659387;-71
2024/03/10 12:57:56;;;;;;;10.67;5.30;;;14.90;1.00;;;;;;4407551;28;659355;-71
2024/03/10 13:00:44;;;;;;;11.63;4.93;;;14.70;1.00;;;;;;4412073;28;657610;-71
2024/03/10 13:03:34;;;;;;;11.17;6.20;;;14.40;1.00;;;;;;4430899;28;658196;-71
2024/03/10 13:06:23;;;;;;;10.47;5.17;;;14.30;1.00;;;;;;4408663;28;657516;-71
2024/03/10 13:09:10;;;;;;;10.67;5.30;;;14.20;1.00;;;;;;4408737;28;658268;-71
2024/03/10 13:11:57;;;;;;;8.80;4.80;;;14.00;1.00;;;;;;4401862;28;657573;-72
2024/03/10 13:14:45;;;;;;;8.37;5.00;;;14.00;1.00;;;;;;4431409;28;657749;-72
2024/03/10 13:17:33;;;;;;;12.77;6.27;;;14.30;1.00;;;;;;4431763;28;657142;-72
2024/03/10 13:20:20;;;;;;;13.73;6.40;;;14.60;1.00;;;;;;4431813;28;658644;-72
2024/03/10 13:23:09;;;;;;;16.10;7.47;;;15.00;1.00;;;;;;4411137;28;657551;-72
2024/03/10 13:25:57;;;;;;;16.83;7.77;;;15.20;1.00;;;;;;4429322;28;657830;-72
2024/03/10 13:28:45;;;;;;;8.87;5.50;;;15.30;1.00;;;;;;4390854;28;658013;-72
2024/03/10 13:31:32;;;;;;;9.80;5.00;;;14.80;1.00;;;;;;4423944;28;656778;-72
2024/03/10 13:34:21;;;;;;;8.53;4.73;;;14.70;1.00;;;;;;4435552;28;657151;-72
2024/03/10 13:37:09;;;;;;;10.00;4.33;;;14.60;1.00;;;;;;4412342;28;657274;-72
2024/03/10 13:39:57;;;;;;;10.43;4.60;;;14.80;1.00;;;;;;4429943;28;658678;-72
2024/03/10 13:42:46;;;;;;;7.87;4.20;;;15.20;1.00;;;;;;4410994;28;658253;-72
2024/03/10 13:45:33;;;;;;;7.60;4.40;;;15.40;1.00;;;;;;4411571;28;656432;-72
2024/03/10 13:48:20;;;;;;;7.37;4.63;;;15.10;1.00;;;;;;4434500;28;656269;-72
2024/03/10 13:51:08;;;;;;;8.33;4.10;;;15.40;1.00;;;;;;4421829;28;656606;-72
2024/03/10 13:53:55;;;;;;;8.70;4.77;;;15.50;1.00;;;;;;4414543;28;657795;-72
2024/03/10 13:56:44;;;;;;;6.57;4.20;;;15.50;1.00;;;;;;4421205;28;657542;-72
2024/03/10 13:59:32;;;;;;;7.30;4.17;;;15.40;1.00;;;;;;4432369;28;657179;-71
2024/03/10 14:02:19;;;;;;;7.20;4.30;;;15.10;1.00;;;;;;4413086;28;657254;-72
2024/03/10 14:05:07;;;;;;;9.57;4.77;;;14.70;1.00;;;;;;4432503;28;656897;-71
2024/03/10 14:07:54;;;;;;;10.47;4.70;;;14.30;1.00;;;;;;4412595;28;657033;-72
2024/03/10 14:10:41;;;;;;;10.03;4.70;;;14.10;1.00;;;;;;4430730;28;657470;-72
2024/03/10 14:13:29;;;;;;;21.53;7.03;;;14.00;1.00;;;;;;4410526;28;658409;-72
2024/03/10 14:16:17;;;;;;;29.43;9.10;;;13.90;1.00;;;;;;4430426;28;657720;-71
2024/03/10 14:19:04;;;;;;;13.50;6.97;;;13.60;1.00;;;;;;4411449;28;658013;-72
2024/03/10 14:21:51;;;;;;;20.73;7.73;;;13.50;1.00;;;;;;4430175;28;657839;-71
2024/03/10 14:24:38;;;;;;;14.63;5.73;;;13.60;1.00;;;;;;4409644;28;658510;-72
2024/03/10 14:27:26;;;;;;;29.87;9.50;;;13.50;1.00;;;;;;4430283;28;658956;-71
2024/03/10 14:30:16;;;;;;;19.37;6.87;;;13.50;1.00;;;;;;4411137;28;657433;-72
2024/03/10 14:33:04;;;;;;;13.85;4.93;;;13.50;1.00;;;;;;4410320;28;657619;-72
2024/03/10 14:35:52;;;;;;;21.63;8.60;;;13.60;1.00;;;;;;4429941;28;657477;-72
2024/03/10 14:38:40;;;;;;;17.37;7.40;;;13.60;1.00;;;;;;4407466;28;658924;-72
2024/03/10 14:41:28;;;;;;;16.10;6.60;;;13.40;11.10;;;;;;4411548;28;658013;-71